Time;durP1;ratioP1;P1;durP2;ratioP2;P2;SDS_P1;SDS_P2;PMS_P1;PMS_P2;Temp;Humidity;BMP_temperature;BMP_pressure;BME280_temperature;BME280_humidity;BME280_pressure;Samples;Min_cycle;Max_cycle;Signal;HPM_P1;HPM_P2
2022/12/07 00:02:19;;;;;;;0.40;0.40;;;-4.70;99.90;;;;;;5116611;27;20653;-80
2022/12/07 00:04:45;;;;;;;0.40;0.40;;;-4.60;99.90;;;;;;5116656;27;20205;-78
2022/12/07 00:07:10;;;;;;;0.40;0.40;;;-4.70;99.90;;;;;;5116568;27;20219;-79
2022/12/07 00:09:36;;;;;;;2.15;0.85;;;-4.70;99.90;;;;;;5116583;27;20198;-78
2022/12/07 00:12:02;;;;;;;0.40;0.40;;;-4.70;99.90;;;;;;5112494;28;20195;-78
2022/12/07 00:14:27;;;;;;;0.35;0.35;;;-4.80;99.90;;;;;;5096037;28;20195;-78
2022/12/07 00:16:53;;;;;;;0.40;0.40;;;-4.80;99.90;;;;;;5114377;28;20199;-78
2022/12/07 00:19:19;;;;;;;0.40;0.40;;;-4.80;99.90;;;;;;5114286;28;20207;-79
2022/12/07 00:21:45;;;;;;;0.40;0.40;;;-4.80;99.90;;;;;;5114317;28;20207;-78
2022/12/07 00:24:12;;;;;;;0.40;0.40;;;-4.80;99.90;;;;;;5092613;28;20708;-79
2022/12/07 00:26:40;;;;;;;0.50;0.50;;;-4.90;99.90;;;;;;5093455;28;20336;-80
2022/12/07 00:29:18;;;;;;;0.40;0.40;;;-4.90;99.90;;;;;;5075459;28;20279;-79
2022/12/07 00:31:44;;;;;;;0.40;0.40;;;-5.00;99.90;;;;;;5093617;28;20276;-79
2022/12/07 00:34:21;;;;;;;0.40;0.40;;;-5.00;99.90;;;;;;5094542;28;20648;-79
2022/12/07 00:36:48;;;;;;;0.40;0.40;;;-5.00;99.90;;;;;;5114022;28;20191;-79
2022/12/07 00:39:13;;;;;;;0.45;0.45;;;-4.90;99.90;;;;;;5115058;28;20264;-78
2022/12/07 00:41:39;;;;;;;0.40;0.40;;;-4.80;99.90;;;;;;5112216;28;20223;-83
2022/12/07 00:44:05;;;;;;;0.40;0.40;;;-4.80;99.90;;;;;;5114187;28;20548;-83
2022/12/07 00:46:31;;;;;;;0.40;0.40;;;-4.70;99.90;;;;;;5113789;28;20184;-81
2022/12/07 00:48:57;;;;;;;0.40;0.40;;;-4.70;99.90;;;;;;5113728;28;20238;-81
2022/12/07 00:51:24;;;;;;;0.50;0.50;;;-4.60;99.90;;;;;;5095440;28;20202;-81
2022/12/07 00:53:51;;;;;;;0.40;0.40;;;-4.60;99.90;;;;;;5095467;28;20681;-81
2022/12/07 00:56:20;;;;;;;0.40;0.40;;;-4.50;99.90;;;;;;5113707;28;20196;-81
2022/12/07 00:59:13;;;;;;;0.40;0.40;;;-4.30;99.90;;;;;;5095195;28;20263;-82
2022/12/07 01:01:39;;;;;;;0.30;0.30;;;-4.30;99.90;;;;;;5091525;28;20203;-82
2022/12/07 01:04:06;;;;;;;0.40;0.40;;;-4.30;99.90;;;;;;5113953;28;20527;-81
2022/12/07 01:06:32;;;;;;;0.40;0.40;;;-4.20;99.90;;;;;;5113461;28;20190;-82
2022/12/07 01:08:58;;;;;;;0.40;0.40;;;-4.20;99.90;;;;;;5095087;28;20567;-81
2022/12/07 01:11:26;;;;;;;0.40;0.40;;;-4.20;99.90;;;;;;5113492;28;20557;-81
2022/12/07 01:13:53;;;;;;;0.30;0.30;;;-4.20;99.90;;;;;;5095151;28;20196;-80
2022/12/07 01:16:21;;;;;;;0.40;0.40;;;-4.20;99.90;;;;;;5113440;28;20746;-80
2022/12/07 01:18:49;;;;;;;0.40;0.40;;;-4.20;99.90;;;;;;5095276;28;20207;-80
2022/12/07 01:21:16;;;;;;;0.40;0.40;;;-4.20;99.90;;;;;;5113460;28;20215;-80
2022/12/07 01:23:42;;;;;;;0.40;0.40;;;-4.20;99.90;;;;;;5104443;28;20192;-80
2022/12/07 01:26:12;;;;;;;0.40;0.40;;;-4.30;99.90;;;;;;5074907;28;20196;-80
2022/12/07 01:28:38;;;;;;;0.40;0.40;;;-4.20;99.90;;;;;;5110325;28;20256;-81
2022/12/07 01:31:14;;;;;;;0.40;0.40;;;-4.30;99.90;;;;;;5113262;28;20207;-80
2022/12/07 01:33:41;;;;;;;0.40;0.40;;;-4.30;99.90;;;;;;5113257;28;20685;-81
2022/12/07 01:36:12;;;;;;;0.40;0.40;;;-4.50;99.90;;;;;;5113423;28;20188;-80
2022/12/07 01:38:38;;;;;;;0.50;0.50;;;-4.50;99.90;;;;;;5112944;28;20633;-80
2022/12/07 01:41:04;;;;;;;0.50;0.50;;;-4.60;99.90;;;;;;5113182;28;20246;-80
2022/12/07 01:43:31;;;;;;;0.40;0.40;;;-4.60;99.90;;;;;;5112942;28;20252;-81
2022/12/07 01:45:57;;;;;;;0.40;0.40;;;-4.50;99.90;;;;;;5094860;28;20566;-80
2022/12/07 01:48:32;;;;;;;0.43;0.43;;;-4.60;99.90;;;;;;5113085;28;20196;-80
2022/12/07 01:51:03;;;;;;;0.50;0.50;;;-4.60;99.90;;;;;;5094989;28;20202;-80
2022/12/07 01:53:30;;;;;;;0.40;0.40;;;-4.70;99.90;;;;;;5094728;28;20192;-80
2022/12/07 01:55:57;;;;;;;0.45;0.45;;;-4.70;99.90;;;;;;5113749;28;20646;-80
2022/12/07 01:58:24;;;;;;;0.37;0.37;;;-4.60;99.90;;;;;;5094267;28;20211;-80
2022/12/07 02:00:50;;;;;;;0.50;0.50;;;-4.60;99.90;;;;;;5113204;28;20188;-83
2022/12/07 02:03:31;;;;;;;0.50;0.50;;;-4.60;99.90;;;;;;5113125;28;20241;-84
2022/12/07 02:05:59;;;;;;;0.40;0.40;;;-4.50;99.90;;;;;;5094490;28;20195;-83
2022/12/07 02:08:25;;;;;;;0.40;0.40;;;-4.40;99.90;;;;;;5112761;28;20560;-83
2022/12/07 02:10:50;;;;;;;0.57;0.57;;;-4.40;99.90;;;;;;5095591;28;20227;-83
2022/12/07 02:13:22;;;;;;;0.40;0.40;;;-4.40;99.90;;;;;;5079601;28;20196;-84
2022/12/07 02:16:24;;;;;;;0.40;0.40;;;-4.40;99.90;;;;;;5097174;28;20244;-83
2022/12/07 02:19:03;;;;;;;0.40;0.40;;;-4.40;99.90;;;;;;5098899;28;20297;-83
2022/12/07 02:22:12;;;;;;;0.50;0.50;;;-4.40;99.90;;;;;;5098796;28;20199;-82
2022/12/07 02:24:54;;;;;;;0.40;0.40;;;-4.40;99.90;;;;;;5067344;28;20365;-81
2022/12/07 02:27:52;;;;;;;0.40;0.40;;;-4.40;99.90;;;;;;5116950;28;20276;-82
2022/12/07 02:30:21;;;;;;;0.40;0.40;;;-4.40;99.90;;;;;;5115137;28;20658;-81
2022/12/07 02:33:00;;;;;;;0.50;0.50;;;-4.50;99.90;;;;;;5114912;28;20666;-83
2022/12/07 02:35:46;;;;;;;0.47;0.47;;;-4.50;99.90;;;;;;5116112;28;20183;-82
2022/12/07 02:38:15;;;;;;;0.40;0.40;;;-4.50;99.90;;;;;;5116215;28;20187;-82
2022/12/07 02:40:47;;;;;;;0.43;0.43;;;-4.60;99.90;;;;;;5115570;28;20214;-82
2022/12/07 02:43:21;;;;;;;0.50;0.50;;;-4.60;99.90;;;;;;5097700;28;20195;-82
2022/12/07 02:45:47;;;;;;;0.50;0.50;;;-4.70;99.90;;;;;;5116048;28;20673;-82
2022/12/07 02:48:16;;;;;;;0.40;0.40;;;-4.70;99.90;;;;;;5116083;28;20289;-82
2022/12/07 02:50:49;;;;;;;0.40;0.40;;;-4.80;99.90;;;;;;5097593;28;20188;-82
2022/12/07 02:53:36;;;;;;;0.40;0.40;;;-4.80;99.90;;;;;;5098068;28;20650;-83
2022/12/07 02:56:39;;;;;;;0.70;0.70;;;-4.80;99.90;;;;;;5108239;28;20636;-82
2022/12/07 02:59:29;;;;;;;0.40;0.40;;;-4.90;99.90;;;;;;5059881;28;20250;-82
2022/12/07 03:02:21;;;;;;;0.40;0.40;;;-4.90;99.90;;;;;;5112768;28;20191;-82
2022/12/07 03:04:50;;;;;;;0.40;0.40;;;-5.00;99.90;;;;;;5097744;28;20738;-82
2022/12/07 03:07:31;;;;;;;0.50;0.50;;;-5.00;99.90;;;;;;5097426;28;20250;-82
2022/12/07 03:10:02;;;;;;;0.50;0.50;;;-5.00;99.90;;;;;;5115704;28;20188;-83
2022/12/07 03:12:48;;;;;;;0.50;0.50;;;-5.00;99.90;;;;;;5115350;28;20274;-82
2022/12/07 03:15:53;;;;;;;0.50;0.50;;;-5.00;99.90;;;;;;5097221;28;20195;-83
2022/12/07 03:18:22;;;;;;;0.43;0.43;;;-5.00;99.90;;;;;;5111331;28;20260;-83
2022/12/07 03:20:51;;;;;;;0.47;0.47;;;-5.00;99.90;;;;;;5096864;28;20294;-83
2022/12/07 03:23:19;;;;;;;0.40;0.40;;;-5.00;99.90;;;;;;5109922;28;20196;-83
2022/12/07 03:25:52;;;;;;;0.40;0.40;;;-5.00;99.90;;;;;;5113608;28;20701;-83
2022/12/07 03:28:20;;;;;;;0.50;0.50;;;-5.10;99.90;;;;;;5114661;28;20281;-83
2022/12/07 03:31:00;;;;;;;0.50;0.50;;;-5.10;99.90;;;;;;5115496;28;20223;-82
2022/12/07 03:33:29;;;;;;;0.40;0.40;;;-5.20;99.90;;;;;;5113529;28;20650;-82
2022/12/07 03:36:05;;;;;;;0.50;0.50;;;-5.10;99.90;;;;;;5113658;28;20192;-82
2022/12/07 03:38:52;;;;;;;0.40;0.40;;;-5.20;99.90;;;;;;5114856;28;20203;-83
2022/12/07 03:41:31;;;;;;;0.40;0.40;;;-5.10;99.90;;;;;;5096755;28;20219;-82
2022/12/07 03:43:57;;;;;;;0.30;0.30;;;-5.10;99.90;;;;;;5115173;28;20194;-83
2022/12/07 03:46:35;;;;;;;0.40;0.40;;;-5.10;99.90;;;;;;5096294;28;20241;-82
2022/12/07 03:49:32;;;;;;;0.40;0.40;;;-5.10;99.90;;;;;;5096507;28;20199;-83
2022/12/07 03:52:23;;;;;;;0.40;0.40;;;-5.10;99.90;;;;;;5107399;28;20214;-82
2022/12/07 03:54:56;;;;;;;0.40;0.40;;;-5.20;99.90;;;;;;5096317;28;20199;-82
2022/12/07 03:57:23;;;;;;;0.87;0.87;;;-5.20;99.90;;;;;;5109055;28;20566;-82
2022/12/07 03:59:51;;;;;;;0.40;0.40;;;-5.30;99.90;;;;;;5113565;28;20207;-82
2022/12/07 04:02:16;;;;;;;1.33;1.23;;;-5.30;99.90;;;;;;5105361;28;20184;-83
2022/12/07 04:04:43;;;;;;;0.90;0.90;;;-5.30;99.90;;;;;;5113098;28;20591;-82
2022/12/07 04:07:09;;;;;;;0.60;0.60;;;-5.40;99.90;;;;;;5096240;28;20191;-82
2022/12/07 04:09:34;;;;;;;0.53;0.53;;;-5.40;99.90;;;;;;5115853;28;20237;-83
2022/12/07 04:12:00;;;;;;;0.53;0.53;;;-5.40;99.90;;;;;;5115356;28;20214;-83
2022/12/07 04:14:26;;;;;;;0.50;0.50;;;-5.40;99.90;;;;;;5097200;28;20306;-83
2022/12/07 04:16:56;;;;;;;1.87;1.70;;;-5.40;99.90;;;;;;5114932;28;20199;-83
2022/12/07 04:19:24;;;;;;;0.40;0.40;;;-5.40;99.90;;;;;;5093186;28;20210;-82
2022/12/07 04:21:50;;;;;;;0.40;0.40;;;-5.40;99.90;;;;;;5095341;28;20560;-82
2022/12/07 04:24:16;;;;;;;0.40;0.40;;;-5.40;99.90;;;;;;5114107;28;20203;-83
2022/12/07 04:26:43;;;;;;;0.43;0.43;;;-5.50;99.90;;;;;;5095782;28;20196;-83
2022/12/07 04:29:09;;;;;;;0.50;0.50;;;-5.50;99.90;;;;;;5114189;28;20187;-83
2022/12/07 04:31:36;;;;;;;0.40;0.40;;;-5.60;99.90;;;;;;5096262;28;20191;-92
2022/12/07 04:34:03;;;;;;;0.40;0.40;;;-5.60;99.90;;;;;;5114016;28;20711;-82
2022/12/07 04:36:28;;;;;;;0.40;0.40;;;-5.60;99.90;;;;;;5113841;28;20241;-81
2022/12/07 04:38:55;;;;;;;0.40;0.40;;;-5.60;99.90;;;;;;5113571;28;20211;-82
2022/12/07 04:41:26;;;;;;;0.50;0.50;;;-5.70;99.90;;;;;;5095091;28;20246;-82
2022/12/07 04:43:57;;;;;;;0.50;0.50;;;-5.60;99.90;;;;;;5095433;28;20191;-83
2022/12/07 04:46:24;;;;;;;0.43;0.43;;;-5.70;99.90;;;;;;5113866;28;20638;-82
2022/12/07 04:48:50;;;;;;;0.40;0.40;;;-5.70;99.90;;;;;;5114019;28;20698;-82
2022/12/07 04:51:21;;;;;;;0.40;0.40;;;-5.80;99.90;;;;;;5114069;28;20199;-83
2022/12/07 04:53:47;;;;;;;0.50;0.50;;;-5.80;99.90;;;;;;5113419;28;20295;-82
2022/12/07 04:56:14;;;;;;;1.10;1.00;;;-5.80;99.90;;;;;;5095785;28;20278;-82
2022/12/07 04:58:39;;;;;;;0.47;0.47;;;-5.80;99.90;;;;;;5113908;28;21043;-82
2022/12/07 05:01:06;;;;;;;0.50;0.50;;;-5.80;99.90;;;;;;5114154;28;20192;-82
2022/12/07 05:03:32;;;;;;;0.40;0.40;;;-5.80;99.90;;;;;;5114066;28;20555;-84
2022/12/07 05:05:57;;;;;;;0.50;0.50;;;-5.80;99.90;;;;;;5114041;28;20199;-82
2022/12/07 05:08:23;;;;;;;0.40;0.40;;;-5.90;99.90;;;;;;5113426;28;20254;-83
2022/12/07 05:10:49;;;;;;;0.50;0.50;;;-6.00;99.90;;;;;;5113548;28;20214;-83
2022/12/07 05:13:15;;;;;;;0.40;0.40;;;-6.10;99.90;;;;;;5105353;28;20671;-83
2022/12/07 05:15:43;;;;;;;0.50;0.50;;;-6.20;99.90;;;;;;5094887;28;20207;-83
2022/12/07 05:18:11;;;;;;;0.50;0.50;;;-6.30;99.90;;;;;;5095095;28;20328;-83
2022/12/07 05:20:37;;;;;;;0.40;0.40;;;-6.40;99.90;;;;;;5094861;28;20196;-82
2022/12/07 05:23:03;;;;;;;0.50;0.50;;;-6.50;99.90;;;;;;5113238;28;20289;-83
2022/12/07 05:25:29;;;;;;;0.50;0.50;;;-6.50;99.90;;;;;;5113348;28;20179;-82
2022/12/07 05:27:56;;;;;;;0.40;0.40;;;-6.60;99.90;;;;;;5095539;28;20203;-82
2022/12/07 05:30:23;;;;;;;0.47;0.47;;;-6.60;99.90;;;;;;5113000;28;20741;-83
2022/12/07 05:32:48;;;;;;;0.40;0.40;;;-6.60;99.90;;;;;;5095054;28;20290;-83
2022/12/07 05:35:14;;;;;;;0.40;0.40;;;-6.60;99.90;;;;;;5113198;28;20274;-82
2022/12/07 05:37:40;;;;;;;0.50;0.50;;;-6.60;99.90;;;;;;5094748;28;20195;-83
2022/12/07 05:40:06;;;;;;;0.50;0.50;;;-6.60;99.90;;;;;;5094838;28;20258;-83
2022/12/07 05:42:32;;;;;;;0.70;0.70;;;-6.70;99.90;;;;;;5112986;28;20712;-82
2022/12/07 05:44:58;;;;;;;0.50;0.50;;;-6.70;99.90;;;;;;5113289;28;20192;-84
2022/12/07 05:47:23;;;;;;;0.40;0.40;;;-6.80;99.90;;;;;;5093872;28;20191;-83
2022/12/07 05:49:49;;;;;;;0.40;0.40;;;-6.80;99.90;;;;;;5112429;28;20187;-82
2022/12/07 05:52:15;;;;;;;0.40;0.40;;;-6.90;99.90;;;;;;5117672;28;20195;-82
2022/12/07 05:54:40;;;;;;;0.50;0.50;;;-6.90;99.90;;;;;;5099314;28;20199;-82
2022/12/07 05:57:06;;;;;;;0.40;0.40;;;-6.90;99.90;;;;;;5117787;28;20653;-82
2022/12/07 05:59:32;;;;;;;0.50;0.50;;;-6.90;99.90;;;;;;5098531;28;20222;-82
2022/12/07 06:02:07;;;;;;;0.50;0.50;;;-7.00;99.90;;;;;;5098659;28;20632;-82
2022/12/07 06:04:42;;;;;;;0.50;0.50;;;-7.00;99.90;;;;;;5116692;28;20179;-82
2022/12/07 06:07:08;;;;;;;0.50;0.50;;;-7.00;99.90;;;;;;5116889;28;20195;-82
2022/12/07 06:09:35;;;;;;;0.50;0.50;;;-7.10;99.90;;;;;;5116730;28;20191;-82
2022/12/07 06:14:46;;;;;;;0.47;0.47;;;-7.30;99.90;;;;;;5117062;28;20198;-82
2022/12/07 06:17:12;;;;;;;0.47;0.47;;;-7.40;99.90;;;;;;5118035;28;20199;-81
2022/12/07 06:19:38;;;;;;;0.50;0.50;;;-7.50;99.90;;;;;;5115285;28;20238;-82
2022/12/07 06:22:04;;;;;;;0.50;0.50;;;-7.60;99.90;;;;;;5116757;28;20199;-82
2022/12/07 06:24:31;;;;;;;0.40;0.40;;;-7.60;99.90;;;;;;5116140;28;20188;-82
2022/12/07 06:26:57;;;;;;;0.60;0.60;;;-7.70;99.90;;;;;;5116614;28;20650;-83
2022/12/07 06:29:22;;;;;;;0.73;0.73;;;-7.90;99.90;;;;;;5116742;28;20223;-82
2022/12/07 06:31:48;;;;;;;0.50;0.50;;;-7.90;99.90;;;;;;5116705;28;20274;-82
2022/12/07 06:34:17;;;;;;;0.80;0.77;;;-7.90;99.90;;;;;;5116675;28;20212;-82
2022/12/07 06:36:43;;;;;;;0.40;0.40;;;-8.00;99.90;;;;;;5116094;28;20188;-82
2022/12/07 06:39:09;;;;;;;0.57;0.57;;;-8.00;99.90;;;;;;5098367;28;20264;-82
2022/12/07 06:41:39;;;;;;;0.50;0.50;;;-8.00;99.90;;;;;;5079658;28;20268;-82
2022/12/07 06:44:06;;;;;;;0.70;0.70;;;-8.10;99.90;;;;;;5096831;28;20195;-83
2022/12/07 06:46:32;;;;;;;0.50;0.50;;;-8.10;99.90;;;;;;5068852;28;20197;-80
2022/12/07 06:48:58;;;;;;;0.50;0.50;;;-8.10;99.90;;;;;;5057643;28;20237;-82
2022/12/07 06:51:24;;;;;;;0.87;0.87;;;-8.10;99.90;;;;;;5075358;28;20238;-80
2022/12/07 06:53:49;;;;;;;0.50;0.50;;;-8.10;99.90;;;;;;5057759;28;20197;-81
2022/12/07 06:56:15;;;;;;;0.50;0.50;;;-8.20;99.90;;;;;;5057494;28;20197;-81
2022/12/07 06:58:41;;;;;;;0.50;0.50;;;-8.30;99.90;;;;;;5075154;28;20295;-80
2022/12/07 07:01:12;;;;;;;0.50;0.50;;;-8.30;99.90;;;;;;5075067;28;20246;-83
2022/12/07 07:03:38;;;;;;;0.50;0.50;;;-8.30;99.90;;;;;;5075245;28;21280;-81
2022/12/07 07:06:04;;;;;;;0.50;0.50;;;-8.40;99.90;;;;;;5075524;28;20576;-81
2022/12/07 07:08:30;;;;;;;0.50;0.50;;;-8.30;99.90;;;;;;5080883;28;20257;-81
2022/12/07 07:10:56;;;;;;;0.50;0.50;;;-8.30;99.90;;;;;;5095592;28;20622;-83
2022/12/07 07:13:21;;;;;;;0.50;0.50;;;-8.40;99.90;;;;;;5093471;28;20253;-81
2022/12/07 07:15:47;;;;;;;0.50;0.50;;;-8.40;99.90;;;;;;5077591;28;20227;-82
2022/12/07 07:18:13;;;;;;;0.50;0.50;;;-8.50;99.90;;;;;;5095313;28;20563;-82
2022/12/07 07:20:39;;;;;;;0.50;0.50;;;-8.50;99.90;;;;;;5077014;28;20203;-81
2022/12/07 07:23:05;;;;;;;0.50;0.50;;;-8.50;99.90;;;;;;5073243;28;20715;-83
2022/12/07 07:25:31;;;;;;;0.50;0.50;;;-8.50;99.90;;;;;;5074595;28;20185;-82
2022/12/07 07:27:56;;;;;;;0.60;0.60;;;-8.40;99.90;;;;;;5074876;28;20262;-82
2022/12/07 07:30:22;;;;;;;0.60;0.60;;;-8.40;99.90;;;;;;5074604;28;20193;-83
2022/12/07 07:32:48;;;;;;;0.63;0.63;;;-8.40;99.90;;;;;;5056748;28;20227;-82
2022/12/07 07:35:14;;;;;;;0.40;0.40;;;-8.40;99.90;;;;;;5056629;28;20258;-82
2022/12/07 07:37:40;;;;;;;0.60;0.60;;;-8.50;99.90;;;;;;5074514;28;20204;-82
2022/12/07 07:40:07;;;;;;;0.60;0.60;;;-8.50;99.90;;;;;;5081578;28;20241;-83
2022/12/07 07:42:33;;;;;;;0.50;0.50;;;-8.60;99.90;;;;;;5102779;28;20224;-83
2022/12/07 07:44:59;;;;;;;0.77;0.77;;;-8.60;99.90;;;;;;5096827;28;20184;-82
2022/12/07 07:47:24;;;;;;;0.40;0.40;;;-8.70;99.90;;;;;;5096617;28;20198;-82
2022/12/07 07:49:50;;;;;;;0.60;0.60;;;-8.70;99.90;;;;;;5115018;28;20195;-82
2022/12/07 07:52:15;;;;;;;0.87;0.87;;;-8.70;99.90;;;;;;5096959;28;20206;-82
2022/12/07 07:54:41;;;;;;;0.87;0.87;;;-8.70;99.90;;;;;;5096607;28;20244;-82
2022/12/07 07:57:07;;;;;;;0.60;0.60;;;-8.80;99.90;;;;;;5115135;28;20199;-83
2022/12/07 07:59:32;;;;;;;0.60;0.60;;;-8.70;99.90;;;;;;5114702;28;20232;-83
2022/12/07 08:01:58;;;;;;;0.50;0.50;;;-8.70;99.90;;;;;;5114688;28;20654;-83
2022/12/07 08:04:24;;;;;;;0.40;0.40;;;-8.70;99.90;;;;;;5096327;28;20200;-83
2022/12/07 08:06:49;;;;;;;0.50;0.50;;;-8.70;99.90;;;;;;5114693;28;20198;-82
2022/12/07 08:09:15;;;;;;;0.50;0.50;;;-8.70;99.90;;;;;;5114535;28;20225;-82
2022/12/07 08:11:41;;;;;;;0.60;0.60;;;-8.70;99.90;;;;;;5096148;28;20202;-83
2022/12/07 08:14:06;;;;;;;0.50;0.50;;;-8.70;99.90;;;;;;5113797;28;20187;-83
2022/12/07 08:16:32;;;;;;;0.50;0.50;;;-8.80;99.90;;;;;;5114373;28;20195;-83
2022/12/07 08:18:58;;;;;;;0.50;0.50;;;-8.80;99.90;;;;;;5113832;28;20226;-82
2022/12/07 08:21:23;;;;;;;0.50;0.50;;;-8.80;99.90;;;;;;5114101;28;20219;-82
2022/12/07 08:23:49;;;;;;;0.50;0.50;;;-8.80;99.90;;;;;;5104365;28;20604;-83
2022/12/07 08:26:16;;;;;;;0.70;0.70;;;-8.80;99.90;;;;;;5075550;28;20188;-83
2022/12/07 08:28:44;;;;;;;0.50;0.50;;;-8.80;99.90;;;;;;5093812;28;20671;-83
2022/12/07 08:31:15;;;;;;;0.50;0.50;;;-8.80;99.90;;;;;;5093872;28;20559;-82
2022/12/07 08:33:41;;;;;;;0.50;0.50;;;-8.80;99.90;;;;;;5075893;28;20283;-82
2022/12/07 08:36:09;;;;;;;0.50;0.50;;;-8.90;99.90;;;;;;5093708;28;20192;-83
2022/12/07 08:38:36;;;;;;;0.60;0.60;;;-8.90;99.90;;;;;;5099583;28;20199;-83
2022/12/07 08:41:02;;;;;;;0.60;0.60;;;-8.90;99.90;;;;;;5095485;28;20227;-83
2022/12/07 08:43:31;;;;;;;0.50;0.50;;;-8.90;99.90;;;;;;5095691;28;20565;-83
2022/12/07 08:46:18;;;;;;;0.50;0.50;;;-8.80;99.90;;;;;;5113913;28;20698;-83
2022/12/07 08:48:54;;;;;;;0.50;0.50;;;-8.80;99.90;;;;;;5113652;28;20207;-83
2022/12/07 08:51:21;;;;;;;0.60;0.60;;;-8.80;99.90;;;;;;5095327;28;20729;-82
2022/12/07 08:53:47;;;;;;;0.50;0.50;;;-8.80;99.90;;;;;;5113638;28;20534;-82
2022/12/07 08:56:13;;;;;;;0.50;0.50;;;-8.80;99.90;;;;;;5113848;28;20275;-82
2022/12/07 08:58:40;;;;;;;0.50;0.50;;;-8.90;99.90;;;;;;5113511;28;20212;-83
2022/12/07 09:01:05;;;;;;;0.40;0.40;;;-8.90;99.90;;;;;;5096571;28;20332;-83
2022/12/07 09:03:31;;;;;;;0.50;0.50;;;-8.80;99.90;;;;;;5113359;28;20613;-83
2022/12/07 09:05:58;;;;;;;0.50;0.50;;;-8.80;99.90;;;;;;5095282;28;20708;-83
2022/12/07 09:08:32;;;;;;;0.60;0.60;;;-8.70;99.90;;;;;;5078471;28;20558;-83
2022/12/07 09:10:58;;;;;;;0.50;0.50;;;-8.70;99.90;;;;;;5095157;28;20240;-83
2022/12/07 09:13:24;;;;;;;0.50;0.50;;;-8.70;99.90;;;;;;5113318;28;20593;-83
2022/12/07 09:15:49;;;;;;;0.50;0.50;;;-8.70;99.90;;;;;;5095322;28;20580;-83
2022/12/07 09:18:15;;;;;;;0.50;0.50;;;-8.70;99.90;;;;;;5095711;28;20199;-84
2022/12/07 09:20:41;;;;;;;0.50;0.50;;;-8.70;99.90;;;;;;5095347;28;20191;-83
2022/12/07 09:23:07;;;;;;;0.53;0.53;;;-8.70;99.90;;;;;;5095340;28;20196;-83
2022/12/07 09:25:34;;;;;;;0.93;0.93;;;-8.70;99.90;;;;;;5117017;28;20202;-83
2022/12/07 09:28:00;;;;;;;0.50;0.50;;;-8.60;99.90;;;;;;5117742;28;20213;-83
2022/12/07 09:30:27;;;;;;;0.50;0.50;;;-8.60;99.90;;;;;;5099300;28;20321;-83
2022/12/07 09:32:55;;;;;;;0.50;0.50;;;-8.50;99.90;;;;;;5117720;28;20196;-83
2022/12/07 09:35:21;;;;;;;0.57;0.57;;;-8.50;99.90;;;;;;5098841;28;20196;-83
2022/12/07 09:37:46;;;;;;;0.50;0.50;;;-8.50;99.90;;;;;;5099462;28;20562;-84
2022/12/07 09:40:14;;;;;;;0.50;0.50;;;-8.60;99.90;;;;;;5098749;28;20218;-83
2022/12/07 09:42:44;;;;;;;0.50;0.50;;;-8.50;99.90;;;;;;5117294;28;20605;-83
2022/12/07 09:45:20;;;;;;;0.57;0.57;;;-8.50;99.90;;;;;;5117541;28;20188;-83
2022/12/07 09:47:46;;;;;;;0.60;0.60;;;-8.50;99.90;;;;;;5117287;28;20722;-85
2022/12/07 09:50:16;;;;;;;0.50;0.50;;;-8.40;99.90;;;;;;5099103;28;20191;-83
2022/12/07 09:52:45;;;;;;;0.50;0.50;;;-8.50;99.90;;;;;;5117094;28;20665;-83
2022/12/07 09:55:17;;;;;;;0.50;0.50;;;-8.50;99.90;;;;;;5098856;28;20195;-82
2022/12/07 09:57:43;;;;;;;0.90;0.90;;;-8.50;99.90;;;;;;5117046;28;20283;-83
2022/12/07 10:00:16;;;;;;;0.50;0.50;;;-8.50;99.90;;;;;;5098765;28;20218;-85
2022/12/07 10:02:50;;;;;;;0.40;0.40;;;-8.50;99.90;;;;;;5116885;28;20215;-83
2022/12/07 10:05:39;;;;;;;0.70;0.70;;;-8.40;99.90;;;;;;5098938;28;20632;-87
2022/12/07 10:08:07;;;;;;;0.57;0.57;;;-8.40;99.90;;;;;;5098710;28;20555;-83
2022/12/07 10:10:34;;;;;;;0.50;0.50;;;-8.40;99.90;;;;;;5116938;28;20196;-83
2022/12/07 10:13:05;;;;;;;0.50;0.50;;;-8.40;99.90;;;;;;5117092;28;20191;-83
2022/12/07 10:15:57;;;;;;;0.40;0.40;;;-8.40;99.90;;;;;;5098343;28;20199;-81
2022/12/07 10:18:26;;;;;;;1.63;1.53;;;-8.40;99.90;;;;;;5098381;28;20199;-80
2022/12/07 10:21:07;;;;;;;0.40;0.40;;;-8.30;99.90;;;;;;5116637;28;20272;-80
2022/12/07 10:23:33;;;;;;;0.50;0.50;;;-8.30;99.90;;;;;;5094832;28;20655;-81
2022/12/07 10:26:01;;;;;;;0.50;0.50;;;-8.20;99.90;;;;;;5096212;28;20651;-81
2022/12/07 10:28:35;;;;;;;0.50;0.50;;;-8.20;99.90;;;;;;5096736;28;20184;-80
2022/12/07 10:31:14;;;;;;;0.50;0.50;;;-8.10;99.90;;;;;;5102210;28;20227;-81
2022/12/07 10:37:45;;;;;;;0.50;0.50;;;-7.90;99.90;;;;;;4977016;28;20259;-82
2022/12/07 10:40:35;;;;;;;0.50;0.50;;;-7.80;99.90;;;;;;5013349;28;20310;-82
2022/12/07 10:43:14;;;;;;;1.00;1.00;;;-7.80;99.90;;;;;;5004787;28;20209;-82
2022/12/07 10:45:48;;;;;;;0.50;0.50;;;-7.70;99.90;;;;;;5013524;28;20203;-81
2022/12/07 10:48:17;;;;;;;0.40;0.40;;;-7.70;99.90;;;;;;4997266;28;20294;-82
2022/12/07 10:51:07;;;;;;;0.50;0.50;;;-7.70;99.90;;;;;;4996812;28;20617;-81
2022/12/07 10:53:58;;;;;;;0.50;0.50;;;-7.80;99.90;;;;;;5013180;28;20620;-81
2022/12/07 10:56:49;;;;;;;0.50;0.50;;;-7.80;99.90;;;;;;4996689;28;20277;-81
2022/12/07 10:59:15;;;;;;;0.50;0.50;;;-7.80;99.90;;;;;;4997232;28;20219;-80
2022/12/07 11:01:50;;;;;;;0.50;0.50;;;-7.80;99.90;;;;;;5012927;28;20706;-80
2022/12/07 11:04:43;;;;;;;0.50;0.50;;;-7.70;99.90;;;;;;5013220;28;20221;-82
2022/12/07 11:07:30;;;;;;;0.40;0.40;;;-7.70;99.90;;;;;;5013207;28;20206;-83
2022/12/07 11:10:11;;;;;;;0.40;0.40;;;-7.70;99.90;;;;;;5013377;28;20202;-83
2022/12/07 11:12:58;;;;;;;0.40;0.40;;;-7.70;99.90;;;;;;5012936;28;20789;-80
2022/12/07 11:15:32;;;;;;;0.40;0.40;;;-7.70;99.90;;;;;;5093111;28;20678;-82
2022/12/07 11:18:43;;;;;;;0.40;0.40;;;-7.60;99.90;;;;;;5097207;28;20211;-81
2022/12/07 11:21:29;;;;;;;0.50;0.50;;;-7.30;99.90;;;;;;5115551;28;20664;-84
2022/12/07 11:23:55;;;;;;;0.50;0.50;;;-7.00;99.90;;;;;;5097018;28;20194;-80
2022/12/07 11:26:42;;;;;;;0.47;0.47;;;-7.00;99.90;;;;;;5096938;28;20196;-79
2022/12/07 11:29:28;;;;;;;0.50;0.50;;;-7.10;99.90;;;;;;5096775;28;20219;-83
2022/12/07 11:32:09;;;;;;;0.40;0.40;;;-7.10;99.90;;;;;;5115483;28;20210;-82
2022/12/07 11:34:35;;;;;;;0.50;0.50;;;-7.10;99.90;;;;;;5115251;28;20555;-82
2022/12/07 11:37:04;;;;;;;0.50;0.50;;;-7.10;99.90;;;;;;5115194;28;20278;-82
2022/12/07 11:39:38;;;;;;;0.40;0.40;;;-7.10;99.90;;;;;;5096544;28;20627;-83
2022/12/07 11:42:11;;;;;;;0.40;0.40;;;-7.20;99.90;;;;;;5096942;28;20658;-84
2022/12/07 11:44:54;;;;;;;0.40;0.40;;;-7.20;99.90;;;;;;5096526;28;20598;-84
2022/12/07 11:47:38;;;;;;;0.50;0.50;;;-7.30;99.90;;;;;;5115990;28;20188;-87
2022/12/07 11:50:22;;;;;;;0.50;0.50;;;-7.40;99.90;;;;;;5115248;28;20720;-81
2022/12/07 11:52:58;;;;;;;0.50;0.50;;;-7.40;99.90;;;;;;5114976;28;20195;-83
2022/12/07 11:55:54;;;;;;;0.50;0.50;;;-7.30;99.90;;;;;;5096688;28;20199;-85
2022/12/07 11:58:42;;;;;;;0.50;0.50;;;-7.20;99.90;;;;;;5097223;28;20626;-81
2022/12/07 12:01:16;;;;;;;0.40;0.40;;;-7.20;99.90;;;;;;5096615;28;20198;-82
2022/12/07 12:03:48;;;;;;;0.40;0.40;;;-7.10;99.90;;;;;;5096395;28;20194;-86
2022/12/07 12:06:14;;;;;;;0.40;0.40;;;-7.00;99.90;;;;;;5114630;28;20275;-84
2022/12/07 12:08:48;;;;;;;0.40;0.40;;;-7.00;99.90;;;;;;5114559;28;20199;-83
2022/12/07 12:11:16;;;;;;;0.40;0.40;;;-7.00;99.90;;;;;;5096533;28;20697;-82
2022/12/07 12:14:00;;;;;;;0.50;0.50;;;-6.90;99.90;;;;;;5114373;28;20191;-85
2022/12/07 12:16:47;;;;;;;0.40;0.40;;;-7.00;99.90;;;;;;5114075;28;20274;-80
2022/12/07 12:19:43;;;;;;;0.50;0.50;;;-7.00;99.90;;;;;;5114380;28;20207;-82
2022/12/07 12:22:20;;;;;;;0.43;0.43;;;-7.00;99.90;;;;;;5096143;28;20196;-83
2022/12/07 12:24:51;;;;;;;0.50;0.50;;;-7.00;99.90;;;;;;5095483;28;20727;-81
2022/12/07 12:27:25;;;;;;;0.53;0.53;;;-7.00;99.90;;;;;;5095970;28;20671;-82
2022/12/07 12:29:55;;;;;;;0.50;0.50;;;-7.10;99.90;;;;;;5114218;28;20191;-80
2022/12/07 12:32:48;;;;;;;0.60;0.60;;;-7.10;99.90;;;;;;5114223;28;20241;-80
2022/12/07 12:35:27;;;;;;;0.50;0.50;;;-7.20;99.90;;;;;;5109109;28;20211;-81
2022/12/07 12:37:54;;;;;;;0.40;0.40;;;-7.30;99.90;;;;;;5114107;28;20559;-82
2022/12/07 12:40:20;;;;;;;0.50;0.50;;;-7.30;99.90;;;;;;5113851;28;20257;-81
2022/12/07 12:42:50;;;;;;;0.40;0.40;;;-7.40;99.90;;;;;;5114246;28;20226;-83
2022/12/07 12:45:27;;;;;;;0.50;0.50;;;-7.40;99.90;;;;;;5114274;28;20646;-81
2022/12/07 12:47:56;;;;;;;0.40;0.40;;;-7.40;99.90;;;;;;5113925;28;20223;-81
2022/12/07 12:50:28;;;;;;;0.53;0.53;;;-7.40;99.90;;;;;;5113619;28;20234;-82
2022/12/07 12:52:59;;;;;;;0.50;0.50;;;-7.30;99.90;;;;;;5095487;28;20238;-81
2022/12/07 12:56:05;;;;;;;0.50;0.50;;;-7.30;99.90;;;;;;5113649;28;20667;-81
2022/12/07 12:58:36;;;;;;;0.50;0.50;;;-7.30;99.90;;;;;;5113179;28;20199;-81
2022/12/07 13:01:27;;;;;;;0.50;0.50;;;-7.30;99.90;;;;;;5113849;28;20187;-81
2022/12/07 13:03:56;;;;;;;0.50;0.50;;;-7.40;99.90;;;;;;5095634;28;20203;-80
2022/12/07 13:06:24;;;;;;;0.50;0.50;;;-7.50;99.90;;;;;;5113652;28;20248;-79
2022/12/07 13:08:52;;;;;;;0.40;0.40;;;-7.50;99.90;;;;;;5113687;28;20748;-81
2022/12/07 13:11:28;;;;;;;0.40;0.40;;;-7.50;99.90;;;;;;5113444;28;20669;-80
2022/12/07 13:14:32;;;;;;;0.40;0.40;;;-7.50;99.90;;;;;;5114103;28;20194;-82
2022/12/07 13:16:57;;;;;;;0.47;0.47;;;-7.50;99.90;;;;;;5113795;28;20720;-82